Terminal Aerodrome Forecast
Issued by NWS Cleveland, OH

Home | Current Version | Previous Version | Text Only | Print | Product List | Glossary On
Versions: 1 2 3 4 5 6 7 8 9 10 11 12 13 14 15 16 17 18 19 20 21 22 23 24 25 26 27 28 29 30 31
000
FTUS41 KCLE 252100 AAB
TAFCLE
TAF AMD
KCLE 252102Z 2521/2624 24012KT P6SM OVC025
     FM260200 25007KT P6SM BKN025
     FM260600 VRB03KT P6SM OVC250
     FM261400 06003KT P6SM BKN250
     FM261800 04006KT P6SM SCT250=

USA.gov is the U.S. government's official web portal to all federal, state and local government web resources and services.